Time;durP1;ratioP1;P1;durP2;ratioP2;P2;SDS_P1;SDS_P2;PMS_P1;PMS_P2;Temp;Humidity;BMP_temperature;BMP_pressure;BME280_temperature;BME280_humidity;BME280_pressure;Samples;Min_cycle;Max_cycle;Signal;HPM_P1;HPM_P2
2023/01/21 00:01:07;;;;;;;12.10;9.18;;;;;;;1.67;77.78;101120.34;4121433;28;20038;-64
2023/01/21 00:03:11;;;;;;;12.95;8.25;;;;;;;1.70;77.85;101123.09;4124253;28;20092;-64
2023/01/21 00:05:16;;;;;;;13.05;8.27;;;;;;;1.59;77.99;101125.78;4124768;28;20069;-64
2023/01/21 00:07:19;;;;;;;12.13;8.95;;;;;;;1.67;77.38;101132.28;4115490;28;20465;-64
2023/01/21 00:09:21;;;;;;;15.40;9.00;;;;;;;1.64;78.00;101125.28;4116742;28;20758;-64
2023/01/21 00:11:24;;;;;;;12.40;8.73;;;;;;;1.68;77.61;101134.03;4121091;28;20027;-64
2023/01/21 00:13:27;;;;;;;11.40;8.00;;;;;;;1.75;77.75;101128.50;4123950;28;20038;-64
2023/01/21 00:15:30;;;;;;;10.25;7.45;;;;;;;1.76;77.17;101131.97;4119443;28;20512;-64
2023/01/21 00:17:34;;;;;;;12.40;8.05;;;;;;;1.72;77.34;101134.34;4128520;28;20512;-65
2023/01/21 00:19:37;;;;;;;12.38;8.18;;;;;;;1.62;77.54;101137.13;4116789;28;20031;-65
2023/01/21 00:21:41;;;;;;;10.98;7.80;;;;;;;1.60;77.96;101140.38;4119560;28;20042;-65
2023/01/21 00:23:44;;;;;;;12.82;7.90;;;;;;;1.68;78.10;101142.63;4119374;28;20045;-65
2023/01/21 00:25:47;;;;;;;12.95;8.93;;;;;;;1.67;77.72;101138.28;4125514;28;20088;-64
2023/01/21 00:27:51;;;;;;;12.68;8.57;;;;;;;1.61;77.43;101139.56;4115527;28;20068;-64
2023/01/21 00:29:54;;;;;;;12.20;8.27;;;;;;;1.57;77.60;101143.63;4123141;28;20051;-64
2023/01/21 00:31:57;;;;;;;11.75;8.07;;;;;;;1.62;77.91;101146.47;4117535;28;20572;-64
2023/01/21 00:34:00;;;;;;;12.45;7.55;;;;;;;1.66;77.80;101151.88;4115397;28;20043;-64
2023/01/21 00:36:05;;;;;;;14.88;8.30;;;;;;;1.57;77.95;101148.75;4124159;28;20057;-65
2023/01/21 00:38:09;;;;;;;13.75;8.90;;;;;;;1.64;77.81;101150.91;4127175;28;20035;-64
2023/01/21 00:40:13;;;;;;;13.95;9.43;;;;;;;1.70;77.75;101158.09;4119707;28;20053;-64
2023/01/21 00:42:16;;;;;;;11.88;8.38;;;;;;;1.66;77.90;101163.81;4117094;28;20092;-64
2023/01/21 00:44:19;;;;;;;10.68;7.10;;;;;;;1.66;77.80;101158.69;4119925;28;20046;-64
2023/01/21 00:46:22;;;;;;;11.38;8.63;;;;;;;1.70;77.64;101161.53;4124229;28;20101;-65
2023/01/21 00:48:27;;;;;;;10.35;7.18;;;;;;;1.72;78.04;101167.66;4124169;28;20066;-65
2023/01/21 00:50:29;;;;;;;10.88;7.28;;;;;;;1.74;77.62;101163.50;4127517;28;20044;-65
2023/01/21 00:52:32;;;;;;;11.55;7.15;;;;;;;1.74;77.84;101170.31;4117862;28;20057;-65
2023/01/21 00:54:36;;;;;;;11.30;7.05;;;;;;;1.66;77.72;101167.25;4116922;28;20045;-65
2023/01/21 00:56:39;;;;;;;11.35;7.28;;;;;;;1.70;77.46;101171.78;4118667;28;20078;-65
2023/01/21 00:58:43;;;;;;;9.23;6.78;;;;;;;1.69;77.57;101175.13;4125226;28;20053;-65
2023/01/21 01:00:46;;;;;;;9.43;6.07;;;;;;;1.71;77.49;101183.81;4111161;28;20134;-65
2023/01/21 01:02:49;;;;;;;11.07;6.95;;;;;;;1.66;77.90;101192.00;4138361;28;20038;-65
2023/01/21 01:04:52;;;;;;;9.00;6.93;;;;;;;1.67;77.71;101191.22;4113878;28;20049;-65
2023/01/21 01:06:54;;;;;;;10.23;6.20;;;;;;;1.63;77.76;101192.69;4117368;28;20097;-65
2023/01/21 01:08:58;;;;;;;14.90;7.07;;;;;;;1.67;77.83;101202.34;4122273;28;20051;-64
2023/01/21 01:11:03;;;;;;;11.88;7.32;;;;;;;1.72;77.24;101198.41;4122398;28;20045;-64
2023/01/21 01:13:06;;;;;;;10.80;7.95;;;;;;;1.63;77.56;101204.63;4123955;28;20050;-64
2023/01/21 01:15:10;;;;;;;8.88;5.82;;;;;;;1.66;77.96;101202.25;4113224;28;20046;-64
2023/01/21 01:17:12;;;;;;;11.20;6.28;;;;;;;1.70;78.68;101212.78;4119671;28;20089;-64
2023/01/21 01:19:15;;;;;;;10.25;7.18;;;;;;;1.74;77.65;101211.31;4115808;28;20050;-65
2023/01/21 01:21:20;;;;;;;9.40;6.40;;;;;;;1.80;78.01;101209.13;4118966;28;20041;-64
2023/01/21 01:23:23;;;;;;;;;;;;;;;1.69;78.05;101215.25;4125022;28;20038;-64
2023/01/21 01:25:26;;;;;;;11.25;6.78;;;;;;;1.70;77.65;101214.50;4115818;28;19949;-64
2023/01/21 01:27:30;;;;;;;10.77;6.28;;;;;;;1.78;77.54;101220.06;4118429;28;20540;-64
2023/01/21 01:29:33;;;;;;;10.38;6.60;;;;;;;1.77;77.46;101223.41;4120834;28;20039;-64
2023/01/21 01:31:36;;;;;;;9.95;5.93;;;;;;;1.73;77.71;101227.50;4117453;28;20058;-64
2023/01/21 01:33:39;;;;;;;15.63;7.90;;;;;;;1.70;78.00;101229.88;4120264;28;20035;-64
2023/01/21 01:35:45;;;;;;;13.93;6.65;;;;;;;1.69;78.17;101226.38;4113839;28;20046;-64
2023/01/21 01:37:48;;;;;;;7.60;5.50;;;;;;;1.79;77.88;101230.44;4112994;28;20046;-65
2023/01/21 01:39:51;;;;;;;10.40;5.55;;;;;;;1.79;78.11;101237.25;4091216;28;20051;-64
2023/01/21 01:41:54;;;;;;;8.55;5.15;;;;;;;1.87;77.55;101238.59;4116244;28;20043;-64
2023/01/21 01:44:00;;;;;;;11.48;5.90;;;;;;;1.88;77.45;101235.25;4118163;28;20043;-64
2023/01/21 01:46:03;;;;;;;9.00;5.45;;;;;;;1.96;77.47;101241.72;4118754;28;20047;-64
2023/01/21 01:48:07;;;;;;;9.80;6.10;;;;;;;1.90;76.97;101242.25;4114658;28;20043;-64
2023/01/21 01:50:13;;;;;;;9.38;5.90;;;;;;;1.83;76.92;101244.34;4115801;28;20050;-64
2023/01/21 01:52:19;;;;;;;9.48;5.82;;;;;;;1.91;77.01;101245.69;4117607;28;20507;-64
2023/01/21 01:54:27;;;;;;;8.35;5.47;;;;;;;1.91;76.69;101246.59;4118340;28;20501;-65
2023/01/21 01:56:30;;;;;;;10.25;5.78;;;;;;;1.96;76.43;101251.09;4125316;28;20497;-65
2023/01/21 01:58:33;;;;;;;9.57;5.57;;;;;;;2.01;76.68;101248.00;4114681;28;20089;-65
2023/01/21 02:00:38;;;;;;;8.00;5.70;;;;;;;2.02;75.48;101252.38;4114280;28;20548;-65
2023/01/21 02:03:43;;;;;;;9.65;6.53;;;;;;;1.87;76.04;101254.88;4115169;28;20046;-65
2023/01/21 02:05:09;;;;;;;10.73;6.20;;;;;;;1.78;76.41;101250.84;4115047;28;20039;-65
2023/01/21 02:07:12;;;;;;;8.90;5.63;;;;;;;1.79;76.51;101255.19;4124411;28;20045;-65
2023/01/21 02:09:15;;;;;;;8.27;6.13;;;;;;;1.85;76.77;101255.56;4112277;28;20157;-65
2023/01/21 02:11:20;;;;;;;9.50;5.97;;;;;;;1.84;76.71;101261.47;4111565;28;20039;-64
2023/01/21 02:13:26;;;;;;;10.38;6.15;;;;;;;1.87;76.73;101259.09;4117700;28;20036;-64
2023/01/21 02:15:36;;;;;;;10.60;5.90;;;;;;;1.84;76.73;101261.47;4121429;28;20125;-65
2023/01/21 02:17:54;;;;;;;9.95;5.65;;;;;;;1.93;76.43;101264.63;4118205;28;20057;-65
2023/01/21 02:20:33;;;;;;;8.82;6.50;;;;;;;1.84;75.57;101267.50;4109436;28;20035;-65
2023/01/21 02:22:44;;;;;;;8.32;6.03;;;;;;;1.85;76.08;101263.25;4114793;28;20039;-65
2023/01/21 02:25:14;;;;;;;9.98;5.97;;;;;;;1.89;76.13;101266.09;4113970;28;20047;-65
2023/01/21 02:27:32;;;;;;;10.18;6.15;;;;;;;1.78;75.63;101271.34;4109316;28;20047;-65
2023/01/21 02:29:52;;;;;;;9.20;6.13;;;;;;;1.70;76.38;101268.31;4115484;28;20031;-64
2023/01/21 02:32:17;;;;;;;9.30;6.43;;;;;;;1.78;76.14;101271.34;4114038;28;21282;-65
2023/01/21 02:34:30;;;;;;;9.55;6.70;;;;;;;1.74;76.19;101276.28;4119545;28;20133;-65
2023/01/21 02:36:47;;;;;;;8.63;6.15;;;;;;;1.72;76.75;101270.19;4114250;28;20506;-65
2023/01/21 02:38:57;;;;;;;9.25;6.63;;;;;;;1.70;76.59;101279.44;4111471;28;20070;-64
2023/01/21 02:41:11;;;;;;;10.25;7.05;;;;;;;1.75;76.29;101284.84;4117547;28;20047;-65
2023/01/21 02:43:21;;;;;;;9.90;7.05;;;;;;;1.77;76.15;101283.28;4120866;28;20045;-65
2023/01/21 02:45:33;;;;;;;10.30;7.25;;;;;;;1.76;76.15;101283.19;4122872;28;20089;-65
2023/01/21 02:47:47;;;;;;;12.68;7.15;;;;;;;1.64;76.30;101288.44;4121408;28;20511;-65
2023/01/21 02:49:56;;;;;;;11.60;7.22;;;;;;;1.70;76.47;101299.06;4109226;28;20047;-65
2023/01/21 02:51:59;;;;;;;12.07;7.88;;;;;;;1.82;75.67;101293.81;4099393;28;20043;-65
2023/01/21 02:54:12;;;;;;;11.80;7.72;;;;;;;1.74;75.40;101291.66;4113304;28;20047;-65
2023/01/21 02:56:19;;;;;;;11.77;7.40;;;;;;;1.71;75.63;101296.59;4118008;28;20030;-65
2023/01/21 02:58:27;;;;;;;12.30;9.10;;;;;;;1.67;75.61;101298.88;4122970;28;20042;-65
2023/01/21 03:00:46;;;;;;;12.27;8.27;;;;;;;1.68;75.64;101300.63;4127405;28;20484;-65
2023/01/21 03:03:15;;;;;;;11.77;8.50;;;;;;;1.62;76.25;101306.28;4111081;28;20043;-64
2023/01/21 03:05:30;;;;;;;14.25;8.63;;;;;;;1.69;75.62;101310.97;4114032;28;20038;-64
2023/01/21 03:07:34;;;;;;;12.45;9.55;;;;;;;1.68;75.99;101305.75;4119213;28;20520;-65
2023/01/21 03:09:37;;;;;;;14.30;9.40;;;;;;;1.76;75.32;101309.72;4125800;28;20085;-65
2023/01/21 03:11:43;;;;;;;14.77;10.10;;;;;;;1.81;74.52;101320.25;4129966;28;20352;-65
2023/01/21 03:18:42;;;;;;;15.70;9.88;;;;;;;1.62;75.25;101315.63;4121570;28;20043;-64
2023/01/21 03:20:51;;;;;;;15.38;10.63;;;;;;;1.57;75.67;101318.78;4123623;28;20386;-64
2023/01/21 03:23:00;;;;;;;17.23;10.00;;;;;;;1.62;75.83;101321.66;4122509;28;20035;-64
2023/01/21 03:25:04;;;;;;;15.95;10.52;;;;;;;1.62;75.64;101326.78;4120396;28;20053;-64
2023/01/21 03:27:09;;;;;;;17.05;10.63;;;;;;;1.60;75.73;101324.91;4122292;28;20101;-64
2023/01/21 03:29:17;;;;;;;15.65;10.52;;;;;;;1.55;75.31;101329.75;4117789;28;20096;-64
2023/01/21 03:31:23;;;;;;;14.98;11.43;;;;;;;1.58;75.80;101329.94;4121236;28;20030;-65
2023/01/21 03:33:29;;;;;;;14.85;11.32;;;;;;;1.54;75.92;101333.94;4122490;28;20515;-65
2023/01/21 03:35:35;;;;;;;15.70;10.43;;;;;;;1.57;75.48;101338.41;4126293;28;20042;-65
2023/01/21 03:37:41;;;;;;;17.27;11.27;;;;;;;1.59;75.64;101335.94;4126843;28;20042;-64
2023/01/21 03:39:48;;;;;;;14.45;10.30;;;;;;;1.51;75.62;101331.19;4131070;28;20492;-64
2023/01/21 03:41:51;;;;;;;16.00;10.98;;;;;;;1.53;76.06;101333.84;4116539;28;20043;-64
2023/01/21 03:43:54;;;;;;;16.88;11.50;;;;;;;1.55;75.41;101337.44;4117132;28;20102;-65
2023/01/21 03:46:02;;;;;;;15.75;10.57;;;;;;;1.48;75.47;101335.25;4120584;28;20039;-64
2023/01/21 03:48:13;;;;;;;15.38;11.05;;;;;;;1.52;75.69;101342.31;4119913;28;20070;-64
2023/01/21 03:50:22;;;;;;;15.52;10.20;;;;;;;1.52;75.50;101337.19;4127356;28;20034;-65
2023/01/21 03:52:26;;;;;;;16.23;12.15;;;;;;;1.50;75.48;101349.91;4125038;28;20087;-64
2023/01/21 03:54:31;;;;;;;13.85;10.85;;;;;;;1.55;75.27;101345.13;4114682;28;20039;-64
2023/01/21 03:56:34;;;;;;;16.92;11.75;;;;;;;1.55;74.93;101348.56;4119702;28;20543;-65
2023/01/21 03:58:37;;;;;;;18.45;13.48;;;;;;;1.54;75.14;101346.78;4121929;28;20134;-65
2023/01/21 04:00:39;;;;;;;16.10;12.00;;;;;;;1.52;74.63;101357.69;4123041;28;20039;-65
2023/01/21 04:02:42;;;;;;;16.23;11.68;;;;;;;1.54;75.49;101361.25;4127529;28;20042;-64
2023/01/21 04:04:46;;;;;;;17.10;12.23;;;;;;;1.55;74.98;101356.25;4123705;28;20130;-65
2023/01/21 04:06:48;;;;;;;19.08;12.88;;;;;;;1.53;74.81;101356.91;4123157;28;20106;-64
2023/01/21 04:08:51;;;;;;;16.50;11.88;;;;;;;1.51;74.72;101363.63;4116546;28;20042;-64
2023/01/21 04:10:55;;;;;;;18.77;13.15;;;;;;;1.50;74.80;101366.97;4115791;28;20572;-65
2023/01/21 04:12:58;;;;;;;19.30;14.18;;;;;;;1.47;74.87;101361.66;4122031;28;20042;-64
2023/01/21 04:15:01;;;;;;;20.40;14.60;;;;;;;1.52;74.37;101371.41;4125121;28;20065;-65
2023/01/21 04:17:07;;;;;;;22.65;15.23;;;;;;;1.54;74.18;101371.53;4128381;28;20039;-65
2023/01/21 04:19:10;;;;;;;20.33;16.30;;;;;;;1.49;73.94;101372.88;4126579;28;21151;-65
2023/01/21 04:21:12;;;;;;;22.17;16.55;;;;;;;1.42;74.20;101378.38;4112846;28;20042;-64
2023/01/21 04:23:15;;;;;;;25.35;16.48;;;;;;;1.45;74.32;101376.94;4119642;28;20034;-65
2023/01/21 04:25:18;;;;;;;24.08;16.73;;;;;;;1.51;73.68;101384.13;4134762;28;20046;-64
2023/01/21 04:27:22;;;;;;;22.95;16.42;;;;;;;1.53;73.50;101382.53;4125879;28;20108;-65
2023/01/21 04:29:25;;;;;;;23.38;16.27;;;;;;;1.55;72.68;101384.44;4120469;28;20038;-65
2023/01/21 04:31:28;;;;;;;27.00;17.70;;;;;;;1.49;72.77;101388.25;4118753;28;20105;-65
2023/01/21 04:33:31;;;;;;;24.50;17.45;;;;;;;1.49;72.61;101390.81;4101448;28;20121;-65
2023/01/21 04:35:34;;;;;;;24.08;17.45;;;;;;;1.35;73.03;101398.47;4105186;28;20042;-65
2023/01/21 04:37:37;;;;;;;24.13;16.48;;;;;;;1.31;73.05;101396.50;4120301;28;20041;-65
2023/01/21 04:39:40;;;;;;;26.48;17.17;;;;;;;1.22;73.19;101395.88;4129117;28;20042;-65
2023/01/21 04:41:43;;;;;;;28.45;19.25;;;;;;;1.26;72.83;101386.75;4123151;28;20561;-65
2023/01/21 04:43:47;;;;;;;27.52;17.85;;;;;;;1.19;72.93;101390.56;4102965;28;20117;-64
2023/01/21 04:45:49;;;;;;;27.73;18.55;;;;;;;1.14;73.34;101397.03;4126702;28;20102;-65
2023/01/21 04:47:52;;;;;;;26.83;18.50;;;;;;;1.19;73.44;101394.00;4123507;28;20133;-64
2023/01/21 04:49:55;;;;;;;29.08;19.40;;;;;;;1.15;73.31;101398.81;4127067;28;20455;-64
2023/01/21 04:51:58;;;;;;;30.25;20.50;;;;;;;1.15;73.44;101403.94;4126784;28;20097;-64
2023/01/21 04:54:01;;;;;;;29.05;18.27;;;;;;;1.12;73.07;101403.75;4110261;28;20135;-64
2023/01/21 04:56:04;;;;;;;27.88;18.77;;;;;;;1.18;73.28;101399.94;4119355;28;20515;-66
2023/01/21 04:58:07;;;;;;;27.27;19.05;;;;;;;1.15;72.83;101407.38;4120996;28;20049;-64
2023/01/21 05:00:12;;;;;;;25.52;17.95;;;;;;;1.16;72.83;101405.72;4123779;28;20045;-64
2023/01/21 05:02:16;;;;;;;25.98;18.00;;;;;;;1.13;72.66;101410.66;4128479;28;20121;-64
2023/01/21 05:04:19;;;;;;;28.13;17.92;;;;;;;1.14;72.24;101403.06;4117866;28;20089;-64
2023/01/21 05:06:22;;;;;;;25.67;17.27;;;;;;;0.99;72.76;101413.16;4115114;28;20042;-64
2023/01/21 05:08:25;;;;;;;27.15;18.10;;;;;;;0.94;73.07;101408.50;4121311;28;20568;-64
2023/01/21 05:10:28;;;;;;;26.55;17.42;;;;;;;0.94;73.33;101408.50;4121192;28;20042;-63
2023/01/21 05:12:31;;;;;;;26.50;18.45;;;;;;;1.02;73.05;101418.50;4119831;28;20038;-64
2023/01/21 05:14:34;;;;;;;31.05;19.33;;;;;;;1.03;72.88;101420.25;4121164;28;20101;-64
2023/01/21 05:16:38;;;;;;;24.27;17.75;;;;;;;1.02;72.63;101426.16;4114930;28;20142;-64
2023/01/21 05:18:41;;;;;;;27.75;18.02;;;;;;;1.09;72.06;101424.03;4119925;28;20102;-64
2023/01/21 05:20:48;;;;;;;25.10;16.75;;;;;;;1.02;71.66;101428.72;4123074;28;20077;-64
2023/01/21 05:22:50;;;;;;;25.67;16.25;;;;;;;0.95;71.87;101425.63;4127261;28;20042;-64
2023/01/21 05:24:53;;;;;;;26.33;17.33;;;;;;;0.83;72.30;101431.69;4128295;28;20089;-64
2023/01/21 05:26:56;;;;;;;26.00;17.25;;;;;;;0.87;72.50;101432.78;4115823;28;20089;-64
2023/01/21 05:28:59;;;;;;;28.17;18.13;;;;;;;0.69;72.12;101442.66;4099429;28;20051;-64
2023/01/21 05:31:02;;;;;;;26.05;17.45;;;;;;;0.75;72.44;101449.88;4121196;28;20119;-64
2023/01/21 05:33:07;;;;;;;26.33;17.38;;;;;;;0.75;72.71;101447.31;4122744;28;20066;-64
2023/01/21 05:35:12;;;;;;;24.95;17.10;;;;;;;0.74;72.41;101450.63;4127451;28;20037;-65
2023/01/21 05:37:15;;;;;;;26.88;17.38;;;;;;;0.78;72.30;101460.31;4119306;28;20050;-65
2023/01/21 05:39:18;;;;;;;25.67;16.17;;;;;;;0.84;71.39;101453.06;4101011;28;20042;-65
2023/01/21 05:41:21;;;;;;;22.42;14.90;;;;;;;0.74;70.67;101461.75;4118423;28;20045;-64
2023/01/21 05:43:24;;;;;;;27.67;15.73;;;;;;;0.58;71.26;101464.91;4120368;28;20050;-64
2023/01/21 05:45:27;;;;;;;27.50;18.15;;;;;;;0.52;71.85;101469.59;4121673;28;20039;-64
2023/01/21 05:47:29;;;;;;;24.42;16.20;;;;;;;0.53;72.47;101473.94;4121734;28;20555;-64
2023/01/21 05:49:34;;;;;;;22.38;15.07;;;;;;;0.52;72.34;101470.47;4115986;28;20437;-64
2023/01/21 05:51:37;;;;;;;25.20;16.35;;;;;;;0.41;72.16;101480.72;4119871;28;20123;-64
2023/01/21 05:53:39;;;;;;;26.50;17.00;;;;;;;0.40;72.08;101474.72;4122204;28;20042;-64
2023/01/21 05:55:42;;;;;;;23.15;15.40;;;;;;;0.46;71.76;101474.28;4126124;28;20383;-64
2023/01/21 05:57:45;;;;;;;25.20;17.27;;;;;;;0.36;71.67;101476.97;4120424;28;20456;-64
2023/01/21 05:59:48;;;;;;;24.75;15.82;;;;;;;0.33;72.67;101481.06;4114676;28;20097;-65
2023/01/21 06:01:50;;;;;;;24.75;15.52;;;;;;;0.40;72.58;101484.97;4115260;28;20046;-64
2023/01/21 06:03:55;;;;;;;25.30;15.35;;;;;;;0.48;71.88;101495.72;4117665;28;20034;-64
2023/01/21 06:05:59;;;;;;;24.25;15.15;;;;;;;0.48;71.33;101488.06;4124455;28;20373;-65
2023/01/21 06:08:01;;;;;;;29.00;15.65;;;;;;;0.40;71.27;101495.19;4127386;28;20386;-64
2023/01/21 06:10:05;;;;;;;22.33;14.45;;;;;;;0.28;71.12;101499.44;4119488;28;20046;-64
2023/01/21 06:12:10;;;;;;;23.30;14.30;;;;;;;0.27;71.14;101498.53;4112796;28;20039;-65
2023/01/21 06:14:13;;;;;;;25.55;15.15;;;;;;;0.16;71.21;101494.28;4120146;28;20031;-65
2023/01/21 06:16:16;;;;;;;25.08;15.15;;;;;;;0.16;71.33;101504.53;4122456;28;20040;-64
2023/01/21 06:18:19;;;;;;;22.75;14.80;;;;;;;0.12;71.80;101502.56;4125611;28;20126;-64
2023/01/21 06:20:21;;;;;;;21.85;14.23;;;;;;;0.02;72.28;101506.09;4117344;28;20038;-65
2023/01/21 06:22:26;;;;;;;22.73;15.80;;;;;;;0.09;72.49;101503.22;4116221;28;20133;-64
2023/01/21 06:24:28;;;;;;;25.73;15.60;;;;;;;0.03;71.84;101514.63;4118299;28;20477;-64
2023/01/21 06:26:32;;;;;;;22.77;14.75;;;;;;;0.10;72.08;101515.22;4120898;28;20420;-65
2023/01/21 06:28:35;;;;;;;21.10;14.38;;;;;;;0.17;72.29;101517.41;4117160;28;20469;-65
2023/01/21 06:30:38;;;;;;;22.80;15.48;;;;;;;0.12;71.64;101523.00;4128056;28;20448;-65
2023/01/21 06:32:41;;;;;;;22.80;13.88;;;;;;;0.06;71.69;101527.63;4106398;28;20604;-65
2023/01/21 06:34:44;;;;;;;22.67;14.68;;;;;;;0.09;71.82;101528.78;4112654;28;20042;-65
2023/01/21 06:36:48;;;;;;;31.52;15.68;;;;;;;0.05;72.57;101524.19;4118632;28;20034;-65
2023/01/21 06:38:52;;;;;;;26.60;15.23;;;;;;;0.13;71.74;101529.88;4110124;28;20047;-64
2023/01/21 06:40:55;;;;;;;23.30;15.18;;;;;;;0.03;71.79;101535.09;4123279;28;20046;-64
2023/01/21 06:42:58;;;;;;;25.35;14.85;;;;;;;0.09;72.52;101528.78;4122758;28;20098;-64
2023/01/21 06:45:01;;;;;;;22.80;15.00;;;;;;;0.02;71.97;101529.09;4099734;28;20047;-64
2023/01/21 06:47:04;;;;;;;21.80;14.88;;;;;;;0.06;72.58;101530.19;4120037;28;20129;-64
2023/01/21 06:49:07;;;;;;;23.33;14.02;;;;;;;0.20;71.70;101541.44;4119206;28;20093;-64
2023/01/21 06:51:09;;;;;;;24.63;15.20;;;;;;;0.19;71.43;101553.38;4121711;28;20050;-64
2023/01/21 06:53:12;;;;;;;26.98;14.48;;;;;;;0.17;70.92;101560.00;4117732;28;20424;-64
2023/01/21 06:55:17;;;;;;;24.20;13.63;;;;;;;0.08;71.53;101557.66;4119714;28;20039;-64
2023/01/21 06:57:20;;;;;;;22.60;12.95;;;;;;;-0.05;71.57;101554.97;4111178;28;20046;-64
2023/01/21 06:59:23;;;;;;;21.73;13.38;;;;;;;-0.04;71.65;101561.88;4113823;28;20046;-64
2023/01/21 07:01:25;;;;;;;24.02;13.80;;;;;;;-0.06;71.54;101560.84;4117746;28;20122;-64
2023/01/21 07:03:29;;;;;;;25.25;14.65;;;;;;;-0.06;71.67;101568.53;4123467;28;20096;-64
2023/01/21 07:05:31;;;;;;;26.00;16.35;;;;;;;0.01;71.15;101575.88;4121938;28;20042;-66
2023/01/21 07:07:34;;;;;;;23.63;15.38;;;;;;;-0.13;71.06;101564.63;4122978;28;20416;-64
2023/01/21 07:09:37;;;;;;;27.58;16.73;;;;;;;-0.22;71.93;101571.59;4128536;28;20113;-65
2023/01/21 07:11:41;;;;;;;25.98;16.05;;;;;;;-0.17;72.16;101571.97;4118042;28;20535;-65
2023/01/21 07:13:44;;;;;;;25.05;15.82;;;;;;;-0.17;71.35;101574.50;4117696;28;20497;-65
2023/01/21 07:15:47;;;;;;;22.17;15.50;;;;;;;-0.20;71.88;101580.28;4118078;28;20039;-66
2023/01/21 07:17:51;;;;;;;27.30;16.20;;;;;;;-0.26;71.39;101585.81;4117733;28;20043;-66
2023/01/21 07:19:53;;;;;;;26.08;16.75;;;;;;;-0.28;71.87;101596.69;4124843;28;20043;-66
2023/01/21 07:21:56;;;;;;;27.27;18.05;;;;;;;-0.34;71.92;101586.88;4117878;28;20046;-65
2023/01/21 07:23:59;;;;;;;31.92;17.42;;;;;;;-0.31;71.29;101584.56;4109211;28;20035;-65
2023/01/21 07:26:02;;;;;;;24.23;16.42;;;;;;;-0.43;72.77;101587.06;4120885;28;20149;-65
2023/01/21 07:28:06;;;;;;;30.73;20.00;;;;;;;-0.47;71.80;101585.03;4121271;28;20577;-66
2023/01/21 07:30:15;;;;;;;27.23;16.50;;;;;;;-0.43;72.65;101591.31;4122749;28;20056;-66
2023/01/21 07:32:18;;;;;;;27.23;18.10;;;;;;;-0.47;72.21;101591.84;4126273;28;20042;-65
2023/01/21 07:34:21;;;;;;;30.10;18.27;;;;;;;-0.51;73.28;101593.28;4115430;28;20495;-67
2023/01/21 07:36:25;;;;;;;28.00;16.98;;;;;;;-0.45;72.45;101591.19;4121738;28;20102;-67
2023/01/21 07:38:28;;;;;;;25.33;17.35;;;;;;;-0.48;73.02;101597.69;4115993;28;20125;-65
2023/01/21 07:40:31;;;;;;;28.05;18.42;;;;;;;-0.44;73.09;101597.16;4119515;28;20405;-65
2023/01/21 07:42:34;;;;;;;27.23;17.38;;;;;;;-0.47;72.97;101605.47;4121942;28;20034;-65
2023/01/21 07:44:38;;;;;;;27.20;17.92;;;;;;;-0.46;72.96;101609.81;4122768;28;20081;-65
2023/01/21 07:46:41;;;;;;;26.70;18.42;;;;;;;-0.56;72.50;101604.78;4123927;28;20129;-65
2023/01/21 07:48:43;;;;;;;28.00;18.23;;;;;;;-0.54;72.67;101613.44;4129528;28;20089;-65
2023/01/21 07:50:46;;;;;;;25.33;16.50;;;;;;;-0.51;72.57;101618.81;4118827;28;20043;-65
2023/01/21 07:52:49;;;;;;;27.42;16.75;;;;;;;-0.39;72.49;101619.75;4109508;28;20046;-66
2023/01/21 07:54:52;;;;;;;29.05;17.60;;;;;;;-0.43;72.51;101612.63;4113057;28;20055;-66
2023/01/21 07:56:55;;;;;;;25.75;17.25;;;;;;;-0.44;72.94;101617.59;4120970;28;20094;-66
2023/01/21 07:58:57;;;;;;;27.73;16.90;;;;;;;-0.36;71.64;101612.31;4118093;28;20041;-66
2023/01/21 08:01:03;;;;;;;29.38;18.20;;;;;;;-0.42;72.29;101613.53;4120694;28;20074;-67
2023/01/21 08:03:06;;;;;;;29.75;18.23;;;;;;;-0.45;71.46;101620.91;4104231;28;20043;-65
2023/01/21 08:05:10;;;;;;;29.75;18.73;;;;;;;-0.42;72.13;101616.09;4107644;28;20527;-72
2023/01/21 08:07:12;;;;;;;28.70;18.15;;;;;;;-0.44;72.54;101622.72;4118311;28;20140;-65
2023/01/21 08:09:15;;;;;;;29.73;19.08;;;;;;;-0.51;72.45;101629.03;4118144;28;20121;-65
2023/01/21 08:11:18;;;;;;;29.77;19.52;;;;;;;-0.46;72.07;101627.72;4119925;28;20042;-67
2023/01/21 08:13:22;;;;;;;31.88;19.13;;;;;;;-0.46;72.39;101627.72;4119193;28;20109;-67
2023/01/21 08:15:24;;;;;;;30.40;19.52;;;;;;;-0.50;72.35;101630.78;4115017;28;20047;-73
2023/01/21 08:17:29;;;;;;;28.67;19.42;;;;;;;-0.48;72.31;101639.47;4095143;28;20533;-70
2023/01/21 08:19:31;;;;;;;33.55;19.77;;;;;;;-0.48;72.99;101639.47;4117532;28;20046;-62
2023/01/21 08:21:34;;;;;;;29.40;17.90;;;;;;;-0.43;72.83;101635.59;4102191;28;20039;-62
2023/01/21 08:23:37;;;;;;;27.17;17.85;;;;;;;-0.32;72.27;101641.56;4115376;28;20054;-63
2023/01/21 08:25:40;;;;;;;30.77;18.88;;;;;;;-0.32;71.67;101640.66;4118444;28;20050;-64
2023/01/21 08:27:43;;;;;;;32.35;19.83;;;;;;;-0.38;71.79;101636.88;4127553;28;20034;-62
2023/01/21 08:29:47;;;;;;;34.90;19.65;;;;;;;-0.38;71.65;101646.19;4116768;28;20125;-62
2023/01/21 08:31:51;;;;;;;31.50;18.87;;;;;;;-0.37;73.05;101642.84;4116933;28;20052;-63
2023/01/21 08:33:56;;;;;;;33.03;19.67;;;;;;;-0.33;71.56;101647.44;4113197;28;20317;-67
2023/01/21 08:36:00;;;;;;;28.02;18.58;;;;;;;-0.37;72.07;101650.53;4113881;28;20042;-67
2023/01/21 08:38:03;;;;;;;30.13;18.57;;;;;;;-0.37;72.26;101653.97;4119637;28;20046;-69
2023/01/21 08:40:08;;;;;;;32.30;20.23;;;;;;;-0.26;72.29;101652.25;4122051;28;20294;-66
2023/01/21 08:42:10;;;;;;;32.83;19.75;;;;;;;-0.22;71.69;101658.47;4128343;28;20385;-65
2023/01/21 08:44:13;;;;;;;34.20;19.80;;;;;;;-0.23;71.77;101660.16;4113215;28;20038;-69
2023/01/21 08:46:16;;;;;;;32.40;19.10;;;;;;;-0.28;71.97;101658.88;4116499;28;20049;-64
2023/01/21 08:48:19;;;;;;;32.80;21.20;;;;;;;-0.25;71.05;101658.25;4118298;28;20061;-64
2023/01/21 08:50:24;;;;;;;29.77;18.92;;;;;;;-0.28;71.25;101663.13;4111817;28;20045;-66
2023/01/21 08:52:27;;;;;;;32.28;19.67;;;;;;;-0.26;72.01;101669.25;4125332;28;20042;-64
2023/01/21 08:54:29;;;;;;;32.03;18.75;;;;;;;-0.14;72.09;101664.19;4122646;28;20062;-64
2023/01/21 08:56:32;;;;;;;39.25;21.70;;;;;;;-0.11;70.45;101661.88;4115138;28;20054;-64
2023/01/21 08:58:35;;;;;;;31.55;20.52;;;;;;;-0.11;70.58;101657.63;4112689;28;20101;-63
2023/01/21 09:00:40;;;;;;;33.80;20.25;;;;;;;-0.06;71.01;101669.13;4121509;28;20408;-62
2023/01/21 09:02:43;;;;;;;33.80;19.30;;;;;;;-0.04;70.96;101662.44;4124004;28;20416;-65
2023/01/21 09:04:46;;;;;;;38.42;22.77;;;;;;;-0.12;71.25;101670.31;4126252;28;20053;-67
2023/01/21 09:06:50;;;;;;;33.65;19.70;;;;;;;-0.05;70.97;101670.88;4105054;28;20144;-67
2023/01/21 09:08:55;;;;;;;37.72;22.27;;;;;;;-0.06;70.05;101673.31;4113524;28;20296;-67
2023/01/21 09:11:02;;;;;;;37.08;21.88;;;;;;;-0.08;70.63;101673.22;4115691;28;20129;-66
2023/01/21 09:13:05;;;;;;;34.63;21.63;;;;;;;-0.12;70.26;101676.28;4121880;28;20042;-67
2023/01/21 09:15:08;;;;;;;36.15;23.10;;;;;;;-0.17;70.80;101675.06;4119280;28;20043;-67
2023/01/21 09:17:11;;;;;;;37.42;22.73;;;;;;;-0.09;71.13;101674.00;4126534;28;20035;-67
2023/01/21 09:19:14;;;;;;;38.05;22.42;;;;;;;-0.04;70.74;101680.34;4115841;28;20038;-67
2023/01/21 09:21:17;;;;;;;39.50;21.05;;;;;;;-0.08;70.31;101678.31;4113563;28;20085;-67
2023/01/21 09:23:24;;;;;;;32.88;21.88;;;;;;;0.02;71.34;101689.28;4118765;28;20038;-67
2023/01/21 09:25:27;;;;;;;36.97;24.15;;;;;;;0.01;70.54;101684.91;4124645;28;20444;-67
2023/01/21 09:27:30;;;;;;;38.30;23.17;;;;;;;-0.08;70.40;101687.66;4110378;28;20480;-67
2023/01/21 09:29:32;;;;;;;37.33;22.65;;;;;;;-0.05;71.02;101691.34;4113700;28;20552;-68
2023/01/21 09:31:35;;;;;;;36.90;22.48;;;;;;;0.07;70.30;101695.59;4117658;28;20035;-67
2023/01/21 09:33:41;;;;;;;37.20;20.90;;;;;;;0.03;71.01;101701.25;4120792;28;20043;-67
2023/01/21 09:35:44;;;;;;;41.42;24.48;;;;;;;0.06;70.49;101696.38;4118718;28;20048;-67
2023/01/21 09:37:47;;;;;;;37.05;23.15;;;;;;;0.07;70.92;101699.03;4127861;28;20041;-67
2023/01/21 09:39:51;;;;;;;38.13;23.30;;;;;;;0.06;71.33;101702.41;4107219;28;20043;-67